sensor_id;sensor_type;location;lat;lon;timestamp;pressure;altitude;pressure_sealevel;temperature;humidity
22283;BME280;11310;51.528;21.204;2023-07-13T00:01:40;99525.41;;;19.33;100.00
22283;BME280;11310;51.528;21.204;2023-07-13T00:04:11;99520.34;;;19.30;100.00
22283;BME280;11310;51.528;21.204;2023-07-13T00:06:40;99512.25;;;19.32;100.00
22283;BME280;11310;51.528;21.204;2023-07-13T00:09:12;99521.91;;;19.33;100.00
22283;BME280;11310;51.528;21.204;2023-07-13T00:11:42;99521.75;;;19.34;100.00
22283;BME280;11310;51.528;21.204;2023-07-13T00:14:11;99522.19;;;19.39;100.00
22283;BME280;11310;51.528;21.204;2023-07-13T00:16:40;99522.75;;;19.43;100.00
22283;BME280;11310;51.528;21.204;2023-07-13T00:19:13;99512.81;;;19.45;100.00
22283;BME280;11310;51.528;21.204;2023-07-13T00:22:23;99511.81;;;19.36;100.00
22283;BME280;11310;51.528;21.204;2023-07-13T00:24:53;99515.75;;;19.32;100.00
22283;BME280;11310;51.528;21.204;2023-07-13T00:27:24;99519.66;;;19.28;100.00
22283;BME280;11310;51.528;21.204;2023-07-13T00:29:54;99519.22;;;19.23;100.00
22283;BME280;11310;51.528;21.204;2023-07-13T00:32:22;99517.41;;;19.24;100.00
22283;BME280;11310;51.528;21.204;2023-07-13T00:34:53;99514.88;;;19.22;100.00
22283;BME280;11310;51.528;21.204;2023-07-13T00:37:23;99512.22;;;19.22;100.00
22283;BME280;11310;51.528;21.204;2023-07-13T00:40:32;99517.06;;;19.17;100.00
22283;BME280;11310;51.528;21.204;2023-07-13T00:43:04;99513.41;;;19.09;100.00
22283;BME280;11310;51.528;21.204;2023-07-13T00:46:09;99518.88;;;19.07;100.00
22283;BME280;11310;51.528;21.204;2023-07-13T00:48:39;99514.53;;;19.06;100.00
22283;BME280;11310;51.528;21.204;2023-07-13T00:51:10;99516.91;;;19.09;100.00
22283;BME280;11310;51.528;21.204;2023-07-13T00:53:40;99517.88;;;19.08;100.00
22283;BME280;11310;51.528;21.204;2023-07-13T00:56:10;99508.66;;;19.03;100.00
22283;BME280;11310;51.528;21.204;2023-07-13T00:58:40;99509.78;;;19.00;100.00
22283;BME280;11310;51.528;21.204;2023-07-13T01:01:09;99506.66;;;18.95;100.00
22283;BME280;11310;51.528;21.204;2023-07-13T01:03:40;99515.09;;;19.00;100.00
22283;BME280;11310;51.528;21.204;2023-07-13T01:06:11;99516.03;;;18.99;100.00
22283;BME280;11310;51.528;21.204;2023-07-13T01:08:39;99509.78;;;19.00;100.00
22283;BME280;11310;51.528;21.204;2023-07-13T01:11:08;99508.06;;;18.99;100.00
22283;BME280;11310;51.528;21.204;2023-07-13T01:13:37;99518.81;;;18.98;100.00
22283;BME280;11310;51.528;21.204;2023-07-13T01:16:23;99517.28;;;18.95;100.00
22283;BME280;11310;51.528;21.204;2023-07-13T01:18:53;99522.88;;;18.92;100.00
22283;BME280;11310;51.528;21.204;2023-07-13T01:21:24;99518.69;;;18.90;100.00
22283;BME280;11310;51.528;21.204;2023-07-13T01:23:54;99521.47;;;18.88;100.00
22283;BME280;11310;51.528;21.204;2023-07-13T01:26:23;99518.81;;;18.88;100.00
22283;BME280;11310;51.528;21.204;2023-07-13T01:28:52;99520.22;;;18.92;100.00
22283;BME280;11310;51.528;21.204;2023-07-13T01:31:24;99528.22;;;18.92;100.00
22283;BME280;11310;51.528;21.204;2023-07-13T01:33:53;99521.72;;;18.85;100.00
22283;BME280;11310;51.528;21.204;2023-07-13T01:36:24;99524.00;;;18.90;100.00
22283;BME280;11310;51.528;21.204;2023-07-13T01:38:53;99531.00;;;18.91;100.00
22283;BME280;11310;51.528;21.204;2023-07-13T01:41:22;99529.00;;;18.83;100.00
22283;BME280;11310;51.528;21.204;2023-07-13T01:43:53;99523.69;;;18.83;100.00
22283;BME280;11310;51.528;21.204;2023-07-13T01:46:21;99529.53;;;18.77;100.00
22283;BME280;11310;51.528;21.204;2023-07-13T01:48:51;99526.72;;;18.69;100.00
22283;BME280;11310;51.528;21.204;2023-07-13T01:51:20;99520.97;;;18.64;100.00
22283;BME280;11310;51.528;21.204;2023-07-13T01:53:51;99512.13;;;18.64;100.00
22283;BME280;11310;51.528;21.204;2023-07-13T01:56:20;99516.59;;;18.63;100.00
22283;BME280;11310;51.528;21.204;2023-07-13T01:58:49;99524.13;;;18.58;100.00
22283;BME280;11310;51.528;21.204;2023-07-13T02:01:18;99526.41;;;18.63;100.00
22283;BME280;11310;51.528;21.204;2023-07-13T02:03:46;99535.38;;;18.62;100.00
22283;BME280;11310;51.528;21.204;2023-07-13T02:06:15;99533.28;;;18.65;100.00
22283;BME280;11310;51.528;21.204;2023-07-13T02:08:44;99536.63;;;18.67;100.00
22283;BME280;11310;51.528;21.204;2023-07-13T02:11:14;99539.88;;;18.71;100.00
22283;BME280;11310;51.528;21.204;2023-07-13T02:13:43;99535.69;;;18.68;100.00
22283;BME280;11310;51.528;21.204;2023-07-13T02:16:12;99539.47;;;18.75;100.00
22283;BME280;11310;51.528;21.204;2023-07-13T02:18:42;99531.19;;;18.69;100.00
22283;BME280;11310;51.528;21.204;2023-07-13T02:21:10;99533.00;;;18.68;100.00
22283;BME280;11310;51.528;21.204;2023-07-13T02:23:39;99539.59;;;18.74;100.00
22283;BME280;11310;51.528;21.204;2023-07-13T02:26:08;99545.75;;;18.74;100.00
22283;BME280;11310;51.528;21.204;2023-07-13T02:28:39;99544.59;;;18.67;100.00
22283;BME280;11310;51.528;21.204;2023-07-13T02:31:14;99539.56;;;18.64;100.00
22283;BME280;11310;51.528;21.204;2023-07-13T02:33:45;99547.72;;;18.52;100.00
22283;BME280;11310;51.528;21.204;2023-07-13T02:36:14;99542.94;;;18.46;100.00
22283;BME280;11310;51.528;21.204;2023-07-13T02:38:46;99552.03;;;18.43;100.00
22283;BME280;11310;51.528;21.204;2023-07-13T02:41:14;99554.00;;;18.41;100.00
22283;BME280;11310;51.528;21.204;2023-07-13T02:43:46;99549.78;;;18.39;100.00
22283;BME280;11310;51.528;21.204;2023-07-13T02:46:16;99547.50;;;18.34;100.00
22283;BME280;11310;51.528;21.204;2023-07-13T02:48:46;99545.81;;;18.33;100.00
22283;BME280;11310;51.528;21.204;2023-07-13T02:51:15;99542.19;;;18.34;100.00
22283;BME280;11310;51.528;21.204;2023-07-13T02:53:44;99545.88;;;18.43;100.00
22283;BME280;11310;51.528;21.204;2023-07-13T02:56:14;99555.13;;;18.48;100.00
22283;BME280;11310;51.528;21.204;2023-07-13T02:58:45;99562.41;;;18.46;100.00
22283;BME280;11310;51.528;21.204;2023-07-13T03:01:14;99560.69;;;18.45;100.00
22283;BME280;11310;51.528;21.204;2023-07-13T03:03:47;99564.09;;;18.47;100.00
22283;BME280;11310;51.528;21.204;2023-07-13T03:06:19;99566.53;;;18.39;100.00
22283;BME280;11310;51.528;21.204;2023-07-13T03:08:52;99562.47;;;18.35;100.00
22283;BME280;11310;51.528;21.204;2023-07-13T03:11:23;99572.13;;;18.36;100.00
22283;BME280;11310;51.528;21.204;2023-07-13T03:14:18;99568.88;;;18.33;100.00
22283;BME280;11310;51.528;21.204;2023-07-13T03:16:48;99577.22;;;18.28;100.00
22283;BME280;11310;51.528;21.204;2023-07-13T03:19:17;99582.53;;;18.28;100.00
22283;BME280;11310;51.528;21.204;2023-07-13T03:21:49;99580.44;;;18.32;100.00
22283;BME280;11310;51.528;21.204;2023-07-13T03:24:19;99574.06;;;18.34;100.00
22283;BME280;11310;51.528;21.204;2023-07-13T03:26:48;99575.75;;;18.35;100.00
22283;BME280;11310;51.528;21.204;2023-07-13T03:29:19;99578.53;;;18.34;100.00
22283;BME280;11310;51.528;21.204;2023-07-13T03:31:48;99575.75;;;18.35;100.00
22283;BME280;11310;51.528;21.204;2023-07-13T03:34:18;99570.06;;;18.29;100.00
22283;BME280;11310;51.528;21.204;2023-07-13T03:36:46;99569.25;;;18.28;100.00
22283;BME280;11310;51.528;21.204;2023-07-13T03:39:15;99572.69;;;18.19;100.00
22283;BME280;11310;51.528;21.204;2023-07-13T03:41:52;99576.88;;;18.22;100.00
22283;BME280;11310;51.528;21.204;2023-07-13T03:44:23;99582.41;;;18.30;100.00
22283;BME280;11310;51.528;21.204;2023-07-13T03:46:55;99582.59;;;18.38;100.00
22283;BME280;11310;51.528;21.204;2023-07-13T03:49:24;99581.94;;;18.45;100.00
22283;BME280;11310;51.528;21.204;2023-07-13T03:51:53;99582.28;;;18.52;100.00
22283;BME280;11310;51.528;21.204;2023-07-13T03:54:22;99582.34;;;18.61;100.00
22283;BME280;11310;51.528;21.204;2023-07-13T03:56:52;99583.75;;;18.65;100.00
22283;BME280;11310;51.528;21.204;2023-07-13T03:59:23;99587.72;;;18.71;100.00
22283;BME280;11310;51.528;21.204;2023-07-13T04:01:52;99586.63;;;18.73;100.00
22283;BME280;11310;51.528;21.204;2023-07-13T04:04:21;99592.38;;;18.78;100.00
22283;BME280;11310;51.528;21.204;2023-07-13T04:06:50;99595.59;;;18.82;100.00
22283;BME280;11310;51.528;21.204;2023-07-13T04:09:20;99601.22;;;18.88;100.00
22283;BME280;11310;51.528;21.204;2023-07-13T04:11:49;99606.56;;;18.98;100.00
22283;BME280;11310;51.528;21.204;2023-07-13T04:14:17;99604.09;;;19.06;100.00
22283;BME280;11310;51.528;21.204;2023-07-13T04:16:48;99597.66;;;19.08;100.00
22283;BME280;11310;51.528;21.204;2023-07-13T04:19:17;99608.47;;;19.16;100.00
22283;BME280;11310;51.528;21.204;2023-07-13T04:21:46;99605.91;;;19.26;100.00
22283;BME280;11310;51.528;21.204;2023-07-13T04:24:15;99616.28;;;19.38;100.00
22283;BME280;11310;51.528;21.204;2023-07-13T04:26:44;99604.97;;;19.46;100.00
22283;BME280;11310;51.528;21.204;2023-07-13T04:29:13;99607.91;;;19.52;100.00
22283;BME280;11310;51.528;21.204;2023-07-13T04:31:42;99612.69;;;19.58;100.00
22283;BME280;11310;51.528;21.204;2023-07-13T04:34:12;99609.50;;;19.64;100.00
22283;BME280;11310;51.528;21.204;2023-07-13T04:36:41;99616.94;;;19.70;100.00
22283;BME280;11310;51.528;21.204;2023-07-13T04:39:10;99611.16;;;19.75;100.00
22283;BME280;11310;51.528;21.204;2023-07-13T04:41:39;99618.47;;;19.82;100.00
22283;BME280;11310;51.528;21.204;2023-07-13T04:44:09;99626.19;;;19.85;100.00
22283;BME280;11310;51.528;21.204;2023-07-13T04:46:38;99616.94;;;19.89;100.00
22283;BME280;11310;51.528;21.204;2023-07-13T04:49:07;99626.19;;;19.95;100.00
22283;BME280;11310;51.528;21.204;2023-07-13T04:51:37;99621.44;;;19.98;100.00
22283;BME280;11310;51.528;21.204;2023-07-13T04:54:06;99618.19;;;20.04;100.00
22283;BME280;11310;51.528;21.204;2023-07-13T04:56:35;99615.72;;;20.12;100.00
22283;BME280;11310;51.528;21.204;2023-07-13T04:59:04;99617.13;;;20.16;100.00
22283;BME280;11310;51.528;21.204;2023-07-13T05:01:33;99618.53;;;20.11;100.00
22283;BME280;11310;51.528;21.204;2023-07-13T05:04:03;99608.72;;;20.11;100.00
22283;BME280;11310;51.528;21.204;2023-07-13T05:06:32;99611.06;;;20.14;100.00
22283;BME280;11310;51.528;21.204;2023-07-13T05:09:02;99614.19;;;20.19;100.00
22283;BME280;11310;51.528;21.204;2023-07-13T05:11:31;99623.41;;;20.25;100.00
22283;BME280;11310;51.528;21.204;2023-07-13T05:14:00;99628.34;;;20.29;100.00
22283;BME280;11310;51.528;21.204;2023-07-13T05:16:29;99635.50;;;20.38;100.00
22283;BME280;11310;51.528;21.204;2023-07-13T05:18:59;99640.25;;;20.44;100.00
22283;BME280;11310;51.528;21.204;2023-07-13T05:21:29;99655.66;;;20.50;100.00
22283;BME280;11310;51.528;21.204;2023-07-13T05:23:57;99648.38;;;20.52;100.00
22283;BME280;11310;51.528;21.204;2023-07-13T05:26:47;99651.44;;;20.57;100.00
22283;BME280;11310;51.528;21.204;2023-07-13T05:29:16;99644.28;;;20.58;100.00
22283;BME280;11310;51.528;21.204;2023-07-13T05:31:45;99645.00;;;20.60;100.00
22283;BME280;11310;51.528;21.204;2023-07-13T05:34:14;99645.84;;;20.60;100.00
22283;BME280;11310;51.528;21.204;2023-07-13T05:36:43;99651.59;;;20.65;100.00
22283;BME280;11310;51.528;21.204;2023-07-13T05:39:13;99646.66;;;20.70;100.00
22283;BME280;11310;51.528;21.204;2023-07-13T05:41:42;99644.41;;;20.75;100.00
22283;BME280;11310;51.528;21.204;2023-07-13T05:44:12;99644.41;;;20.75;100.00
22283;BME280;11310;51.528;21.204;2023-07-13T05:46:41;99645.81;;;20.79;100.00
22283;BME280;11310;51.528;21.204;2023-07-13T05:49:10;99643.00;;;20.81;100.00
22283;BME280;11310;51.528;21.204;2023-07-13T05:51:39;99647.47;;;20.80;100.00
22283;BME280;11310;51.528;21.204;2023-07-13T05:54:08;99643.41;;;20.86;100.00
22283;BME280;11310;51.528;21.204;2023-07-13T05:56:38;99641.28;;;20.89;100.00
22283;BME280;11310;51.528;21.204;2023-07-13T05:59:07;99644.53;;;20.93;100.00
22283;BME280;11310;51.528;21.204;2023-07-13T06:01:37;99643.13;;;20.99;100.00
22283;BME280;11310;51.528;21.204;2023-07-13T06:04:06;99646.47;;;21.01;100.00
22283;BME280;11310;51.528;21.204;2023-07-13T06:06:36;99644.38;;;21.04;100.00
22283;BME280;11310;51.528;21.204;2023-07-13T06:09:05;99644.59;;;21.11;100.00
22283;BME280;11310;51.528;21.204;2023-07-13T06:11:34;99640.84;;;21.13;100.00
22283;BME280;11310;51.528;21.204;2023-07-13T06:14:04;99655.38;;;21.19;100.00
22283;BME280;11310;51.528;21.204;2023-07-13T06:16:32;99651.44;;;21.23;100.00
22283;BME280;11310;51.528;21.204;2023-07-13T06:19:03;99651.16;;;21.26;100.00
22283;BME280;11310;51.528;21.204;2023-07-13T06:21:32;99651.25;;;21.34;100.00
22283;BME280;11310;51.528;21.204;2023-07-13T06:24:01;99643.66;;;21.39;100.00
22283;BME280;11310;51.528;21.204;2023-07-13T06:26:30;99643.34;;;21.42;100.00
22283;BME280;11310;51.528;21.204;2023-07-13T06:28:59;99641.06;;;21.47;100.00
22283;BME280;11310;51.528;21.204;2023-07-13T06:31:28;99646.41;;;21.47;100.00
22283;BME280;11310;51.528;21.204;2023-07-13T06:33:57;99657.94;;;21.47;100.00
22283;BME280;11310;51.528;21.204;2023-07-13T06:36:29;99667.19;;;21.53;100.00
22283;BME280;11310;51.528;21.204;2023-07-13T06:38:58;99665.06;;;21.56;100.00
22283;BME280;11310;51.528;21.204;2023-07-13T06:41:27;99666.59;;;21.59;100.00
22283;BME280;11310;51.528;21.204;2023-07-13T06:43:58;99658.19;;;21.54;100.00
22283;BME280;11310;51.528;21.204;2023-07-13T06:46:28;99662.69;;;21.53;100.00
22283;BME280;11310;51.528;21.204;2023-07-13T06:48:57;99659.72;;;21.56;100.00
22283;BME280;11310;51.528;21.204;2023-07-13T06:51:27;99660.72;;;21.55;100.00
22283;BME280;11310;51.528;21.204;2023-07-13T06:53:57;99664.91;;;21.58;100.00
22283;BME280;11310;51.528;21.204;2023-07-13T06:56:26;99663.53;;;21.54;100.00
22283;BME280;11310;51.528;21.204;2023-07-13T06:58:55;99664.22;;;21.56;100.00
22283;BME280;11310;51.528;21.204;2023-07-13T07:01:24;99665.22;;;21.55;100.00
22283;BME280;11310;51.528;21.204;2023-07-13T07:03:52;99664.91;;;21.58;100.00
22283;BME280;11310;51.528;21.204;2023-07-13T07:06:22;99659.25;;;21.61;100.00
22283;BME280;11310;51.528;21.204;2023-07-13T07:08:52;99663.47;;;21.63;100.00
22283;BME280;11310;51.528;21.204;2023-07-13T07:11:24;99669.94;;;21.61;100.00
22283;BME280;11310;51.528;21.204;2023-07-13T07:13:54;99670.00;;;21.51;100.00
22283;BME280;11310;51.528;21.204;2023-07-13T07:16:24;99665.94;;;21.47;100.00
22283;BME280;11310;51.528;21.204;2023-07-13T07:18:54;99662.75;;;21.44;100.00
22283;BME280;11310;51.528;21.204;2023-07-13T07:21:23;99665.56;;;21.42;100.00
22283;BME280;11310;51.528;21.204;2023-07-13T07:23:53;99663.41;;;21.46;100.00
22283;BME280;11310;51.528;21.204;2023-07-13T07:26:24;99656.13;;;21.48;100.00
22283;BME280;11310;51.528;21.204;2023-07-13T07:28:57;99661.69;;;21.54;100.00
22283;BME280;11310;51.528;21.204;2023-07-13T07:31:28;99656.44;;;21.62;100.00
22283;BME280;11310;51.528;21.204;2023-07-13T07:34:00;99654.16;;;21.67;100.00
22283;BME280;11310;51.528;21.204;2023-07-13T07:36:30;99647.16;;;21.76;100.00
22283;BME280;11310;51.528;21.204;2023-07-13T07:39:02;99652.97;;;21.89;100.00
22283;BME280;11310;51.528;21.204;2023-07-13T07:41:33;99653.03;;;21.97;100.00
22283;BME280;11310;51.528;21.204;2023-07-13T07:44:05;99655.66;;;22.06;100.00
22283;BME280;11310;51.528;21.204;2023-07-13T07:46:37;99655.56;;;22.16;100.00
22283;BME280;11310;51.528;21.204;2023-07-13T07:49:08;99644.94;;;22.24;100.00
22283;BME280;11310;51.528;21.204;2023-07-13T07:51:38;99652.06;;;22.33;100.00
22283;BME280;11310;51.528;21.204;2023-07-13T07:54:07;99651.13;;;22.42;100.00
22283;BME280;11310;51.528;21.204;2023-07-13T07:56:42;99661.22;;;22.48;100.00
22283;BME280;11310;51.528;21.204;2023-07-13T07:59:14;99659.94;;;22.52;100.00
22283;BME280;11310;51.528;21.204;2023-07-13T08:01:46;99657.97;;;22.54;100.00
22283;BME280;11310;51.528;21.204;2023-07-13T08:04:20;99656.09;;;22.54;100.00
22283;BME280;11310;51.528;21.204;2023-07-13T08:06:52;99657.25;;;22.52;100.00
22283;BME280;11310;51.528;21.204;2023-07-13T08:09:23;99663.47;;;22.52;100.00
22283;BME280;11310;51.528;21.204;2023-07-13T08:11:54;99654.28;;;22.55;100.00
22283;BME280;11310;51.528;21.204;2023-07-13T08:14:26;99650.47;;;22.57;100.00
22283;BME280;11310;51.528;21.204;2023-07-13T08:17:15;99651.19;;;22.67;100.00
22283;BME280;11310;51.528;21.204;2023-07-13T08:19:46;99652.28;;;22.74;100.00
22283;BME280;11310;51.528;21.204;2023-07-13T08:22:16;99644.50;;;22.89;100.00
22283;BME280;11310;51.528;21.204;2023-07-13T08:24:45;99662.28;;;22.98;100.00
22283;BME280;11310;51.528;21.204;2023-07-13T08:27:16;99654.66;;;23.11;100.00
22283;BME280;11310;51.528;21.204;2023-07-13T08:29:47;99657.63;;;23.25;100.00
22283;BME280;11310;51.528;21.204;2023-07-13T08:32:17;99663.19;;;23.32;100.00
22283;BME280;11310;51.528;21.204;2023-07-13T08:34:46;99665.22;;;23.38;100.00
22283;BME280;11310;51.528;21.204;2023-07-13T08:37:16;99665.91;;;23.40;100.00
22283;BME280;11310;51.528;21.204;2023-07-13T08:39:46;99672.94;;;23.41;100.00
22283;BME280;11310;51.528;21.204;2023-07-13T08:42:27;99665.22;;;23.38;100.00
22283;BME280;11310;51.528;21.204;2023-07-13T08:45:07;99677.13;;;23.43;100.00
22283;BME280;11310;51.528;21.204;2023-07-13T08:47:42;99671.97;;;23.50;100.00
22283;BME280;11310;51.528;21.204;2023-07-13T08:50:17;99675.03;;;23.55;100.00
22283;BME280;11310;51.528;21.204;2023-07-13T08:52:49;99678.72;;;23.62;100.00
22283;BME280;11310;51.528;21.204;2023-07-13T08:55:20;99669.69;;;23.63;100.00
22283;BME280;11310;51.528;21.204;2023-07-13T08:57:53;99675.38;;;23.60;100.00
22283;BME280;11310;51.528;21.204;2023-07-13T09:00:25;99679.41;;;23.64;100.00
22283;BME280;11310;51.528;21.204;2023-07-13T09:03:02;99677.03;;;23.94;100.00
22283;BME280;11310;51.528;21.204;2023-07-13T09:05:36;99670.25;;;24.32;100.00
22283;BME280;11310;51.528;21.204;2023-07-13T09:08:28;99666.72;;;24.55;100.00
22283;BME280;11310;51.528;21.204;2023-07-13T09:11:05;99665.75;;;24.80;100.00
22283;BME280;11310;51.528;21.204;2023-07-13T09:13:42;99669.50;;;25.26;100.00
22283;BME280;11310;51.528;21.204;2023-07-13T09:16:12;99685.59;;;25.50;100.00
22283;BME280;11310;51.528;21.204;2023-07-13T09:18:44;99684.38;;;25.60;100.00
22283;BME280;11310;51.528;21.204;2023-07-13T09:21:17;99677.56;;;25.42;100.00
22283;BME280;11310;51.528;21.204;2023-07-13T09:23:53;99670.72;;;25.15;100.00
22283;BME280;11310;51.528;21.204;2023-07-13T09:26:25;99658.44;;;25.37;100.00
22283;BME280;11310;51.528;21.204;2023-07-13T09:29:06;99667.03;;;25.71;100.00
22283;BME280;11310;51.528;21.204;2023-07-13T09:31:43;99667.78;;;25.87;100.00
22283;BME280;11310;51.528;21.204;2023-07-13T09:34:13;99664.59;;;25.92;100.00
22283;BME280;11310;51.528;21.204;2023-07-13T09:36:42;99660.59;;;25.80;100.00
22283;BME280;11310;51.528;21.204;2023-07-13T09:39:15;99656.50;;;25.61;100.00
22283;BME280;11310;51.528;21.204;2023-07-13T09:41:53;99652.53;;;25.49;100.00
22283;BME280;11310;51.528;21.204;2023-07-13T09:44:30;99656.38;;;25.55;100.00
22283;BME280;11310;51.528;21.204;2023-07-13T09:46:59;99647.16;;;25.80;100.00
22283;BME280;11310;51.528;21.204;2023-07-13T09:49:34;99643.75;;;25.86;100.00
22283;BME280;11310;51.528;21.204;2023-07-13T09:52:04;99646.50;;;25.78;100.00
22283;BME280;11310;51.528;21.204;2023-07-13T09:54:35;99648.38;;;25.69;100.00
22283;BME280;11310;51.528;21.204;2023-07-13T09:57:15;99642.19;;;25.69;100.00
22283;BME280;11310;51.528;21.204;2023-07-13T09:59:47;99636.19;;;25.89;100.00
22283;BME280;11310;51.528;21.204;2023-07-13T10:02:26;99631.97;;;26.25;100.00
22283;BME280;11310;51.528;21.204;2023-07-13T10:04:58;99625.81;;;26.54;100.00
22283;BME280;11310;51.528;21.204;2023-07-13T10:07:27;99620.41;;;26.62;100.00
22283;BME280;11310;51.528;21.204;2023-07-13T10:09:59;99620.88;;;26.65;100.00
22283;BME280;11310;51.528;21.204;2023-07-13T10:12:35;99617.91;;;26.60;100.00
22283;BME280;11310;51.528;21.204;2023-07-13T10:15:16;99619.75;;;26.97;100.00
22283;BME280;11310;51.528;21.204;2023-07-13T10:17:52;99616.22;;;27.11;100.00
22283;BME280;11310;51.528;21.204;2023-07-13T10:20:22;99610.91;;;27.17;100.00
22283;BME280;11310;51.528;21.204;2023-07-13T10:22:55;99606.03;;;27.21;100.00
22283;BME280;11310;51.528;21.204;2023-07-13T10:25:27;99610.94;;;27.32;100.00
22283;BME280;11310;51.528;21.204;2023-07-13T10:28:04;99599.16;;;27.33;100.00
22283;BME280;11310;51.528;21.204;2023-07-13T10:30:40;99601.72;;;27.41;100.00
22283;BME280;11310;51.528;21.204;2023-07-13T10:33:13;99594.94;;;27.45;100.00
22283;BME280;11310;51.528;21.204;2023-07-13T10:35:47;99605.34;;;27.48;100.00
22283;BME280;11310;51.528;21.204;2023-07-13T10:38:22;99600.91;;;27.40;100.00
22283;BME280;11310;51.528;21.204;2023-07-13T10:40:57;99603.38;;;27.42;100.00
22283;BME280;11310;51.528;21.204;2023-07-13T10:43:29;99602.34;;;27.57;100.00
22283;BME280;11310;51.528;21.204;2023-07-13T10:46:07;99596.38;;;27.76;100.00
22283;BME280;11310;51.528;21.204;2023-07-13T10:48:39;99601.75;;;27.91;99.22
22283;BME280;11310;51.528;21.204;2023-07-13T10:51:10;99607.53;;;27.88;98.65
22283;BME280;11310;51.528;21.204;2023-07-13T10:53:40;99604.66;;;27.75;99.20
22283;BME280;11310;51.528;21.204;2023-07-13T10:56:22;99606.00;;;27.50;95.90
22283;BME280;11310;51.528;21.204;2023-07-13T10:59:04;99606.22;;;27.34;98.00
22283;BME280;11310;51.528;21.204;2023-07-13T11:01:50;99599.41;;;27.23;100.00
22283;BME280;11310;51.528;21.204;2023-07-13T11:04:22;99593.34;;;27.07;100.00
22283;BME280;11310;51.528;21.204;2023-07-13T11:06:53;99602.16;;;26.86;97.87
22283;BME280;11310;51.528;21.204;2023-07-13T11:09:32;99593.25;;;26.71;100.00
22283;BME280;11310;51.528;21.204;2023-07-13T11:12:05;99600.94;;;26.60;100.00
22283;BME280;11310;51.528;21.204;2023-07-13T11:14:41;99601.50;;;26.47;100.00
22283;BME280;11310;51.528;21.204;2023-07-13T11:17:35;99602.09;;;26.35;100.00
22283;BME280;11310;51.528;21.204;2023-07-13T11:20:39;99601.88;;;26.22;100.00
22283;BME280;11310;51.528;21.204;2023-07-13T11:23:18;99607.09;;;26.01;100.00
22283;BME280;11310;51.528;21.204;2023-07-13T11:25:47;99607.44;;;25.90;100.00
22283;BME280;11310;51.528;21.204;2023-07-13T11:28:24;99607.56;;;25.74;100.00
22283;BME280;11310;51.528;21.204;2023-07-13T11:31:13;99610.31;;;25.58;100.00
22283;BME280;11310;51.528;21.204;2023-07-13T11:33:54;99604.00;;;25.51;100.00
22283;BME280;11310;51.528;21.204;2023-07-13T11:36:30;99603.00;;;25.44;100.00
22283;BME280;11310;51.528;21.204;2023-07-13T11:39:02;99603.03;;;25.36;100.00
22283;BME280;11310;51.528;21.204;2023-07-13T11:41:35;99602.38;;;25.18;100.00
22283;BME280;11310;51.528;21.204;2023-07-13T11:44:12;99598.09;;;25.01;100.00
22283;BME280;11310;51.528;21.204;2023-07-13T11:46:45;99607.69;;;24.87;100.00
22283;BME280;11310;51.528;21.204;2023-07-13T11:49:21;99596.47;;;24.76;100.00
22283;BME280;11310;51.528;21.204;2023-07-13T11:51:51;99596.47;;;24.76;100.00
22283;BME280;11310;51.528;21.204;2023-07-13T11:54:26;99596.50;;;24.68;100.00
22283;BME280;11310;51.528;21.204;2023-07-13T11:56:58;99606.53;;;24.58;100.00
22283;BME280;11310;51.528;21.204;2023-07-13T11:59:29;99605.53;;;24.51;100.00
22283;BME280;11310;51.528;21.204;2023-07-13T12:02:00;99612.91;;;24.49;100.00
22283;BME280;11310;51.528;21.204;2023-07-13T12:04:33;99616.94;;;24.53;100.00
22283;BME280;11310;51.528;21.204;2023-07-13T12:07:07;99618.94;;;24.59;100.00
22283;BME280;11310;51.528;21.204;2023-07-13T12:09:36;99622.00;;;24.64;100.00
22283;BME280;11310;51.528;21.204;2023-07-13T12:12:11;99632.00;;;24.54;100.00
22283;BME280;11310;51.528;21.204;2023-07-13T12:14:41;99643.25;;;24.41;100.00
22283;BME280;11310;51.528;21.204;2023-07-13T12:17:15;99642.72;;;24.22;100.00
22283;BME280;11310;51.528;21.204;2023-07-13T12:19:50;99641.69;;;23.99;100.00
22283;BME280;11310;51.528;21.204;2023-07-13T12:22:21;99642.78;;;23.80;100.00
22283;BME280;11310;51.528;21.204;2023-07-13T12:24:52;99653.63;;;23.63;100.00
22283;BME280;11310;51.528;21.204;2023-07-13T12:27:23;99643.53;;;23.49;100.00
22283;BME280;11310;51.528;21.204;2023-07-13T12:29:56;99649.66;;;23.41;100.00
22283;BME280;11310;51.528;21.204;2023-07-13T12:32:27;99640.78;;;23.33;100.00
22283;BME280;11310;51.528;21.204;2023-07-13T12:35:14;99651.13;;;23.28;100.00
22283;BME280;11310;51.528;21.204;2023-07-13T12:37:44;99644.41;;;23.24;100.00
22283;BME280;11310;51.528;21.204;2023-07-13T12:40:16;99641.22;;;23.20;100.00
22283;BME280;11310;51.528;21.204;2023-07-13T12:42:47;99640.06;;;23.23;100.00
22283;BME280;11310;51.528;21.204;2023-07-13T12:45:20;99647.69;;;23.18;100.00
22283;BME280;11310;51.528;21.204;2023-07-13T12:47:55;99656.53;;;23.18;100.00
22283;BME280;11310;51.528;21.204;2023-07-13T12:50:36;99662.25;;;23.15;100.00
22283;BME280;11310;51.528;21.204;2023-07-13T12:53:12;99660.66;;;23.05;100.00
22283;BME280;11310;51.528;21.204;2023-07-13T12:55:42;99658.44;;;23.00;100.00
22283;BME280;11310;51.528;21.204;2023-07-13T12:58:17;99697.41;;;22.95;100.00
22283;BME280;11310;51.528;21.204;2023-07-13T13:00:51;99684.88;;;22.78;100.00
22283;BME280;11310;51.528;21.204;2023-07-13T13:03:25;99687.16;;;22.47;100.00
22283;BME280;11310;51.528;21.204;2023-07-13T13:06:00;99688.78;;;22.13;100.00